Time;durP1;ratioP1;P1;durP2;ratioP2;P2;SDS_P1;SDS_P2;PMS_P1;PMS_P2;Temp;Humidity;BMP_temperature;BMP_pressure;BME280_temperature;BME280_humidity;BME280_pressure;Samples;Min_cycle;Max_cycle;Signal;HPM_P1;HPM_P2
2024/04/22 00:02:19;;;;;;;3.90;2.20;;;;;;;13.69;41.40;102328.91;5249990;27;20002;-64
2024/04/22 00:04:44;;;;;;;3.50;1.90;;;;;;;13.67;41.30;102321.91;5278579;27;19998;-63
2024/04/22 00:07:11;;;;;;;5.82;1.98;;;;;;;13.65;41.34;102319.31;5223038;27;20002;-64
2024/04/22 00:09:40;;;;;;;13.05;2.58;;;;;;;13.63;41.08;102309.63;5256403;27;20454;-63
2024/04/22 00:12:06;;;;;;;4.70;2.30;;;;;;;13.60;41.48;102320.63;5252213;27;19999;-64
2024/04/22 00:14:31;;;;;;;2.85;1.90;;;;;;;13.59;41.34;102318.94;5223588;27;20068;-64
2024/04/22 00:16:57;;;;;;;4.60;2.45;;;;;;;13.57;41.51;102310.09;5278353;27;20014;-64
2024/04/22 00:19:22;;;;;;;5.22;3.25;;;;;;;13.53;41.34;102317.53;5250221;27;20002;-64
2024/04/22 00:21:48;;;;;;;6.15;2.00;;;;;;;13.48;41.38;102314.34;5250199;27;20021;-63
2024/04/22 00:24:14;;;;;;;3.25;2.40;;;;;;;13.43;41.36;102311.94;5279482;27;20006;-63
2024/04/22 00:26:39;;;;;;;2.53;1.55;;;;;;;13.43;41.50;102314.63;5249845;27;20013;-64
2024/04/22 00:29:04;;;;;;;3.50;2.10;;;;;;;13.39;41.20;102317.69;5249813;27;20465;-63
2024/04/22 00:31:30;;;;;;;3.80;2.00;;;;;;;13.39;41.59;102312.28;5249598;27;20006;-64
2024/04/22 00:33:55;;;;;;;2.67;2.03;;;;;;;13.37;41.43;102320.47;5221966;27;20006;-64
2024/04/22 00:36:21;;;;;;;4.05;2.20;;;;;;;13.34;41.35;102307.22;5277808;27;20038;-63
2024/04/22 00:38:47;;;;;;;4.57;2.63;;;;;;;13.36;41.32;102313.38;5249598;27;20486;-64
2024/04/22 00:41:12;;;;;;;4.32;2.65;;;;;;;13.34;41.57;102312.59;5249691;27;20402;-64
2024/04/22 00:43:38;;;;;;;7.63;2.90;;;;;;;13.33;41.60;102312.72;5249740;27;20045;-64
2024/04/22 00:46:04;;;;;;;6.50;2.60;;;;;;;13.28;41.55;102313.06;5249672;27;20069;-64
2024/04/22 00:48:30;;;;;;;4.15;2.00;;;;;;;13.23;41.75;102312.53;5249600;27;20046;-64
2024/04/22 00:50:57;;;;;;;5.47;2.17;;;;;;;13.21;41.68;102313.59;5221547;27;20002;-64
2024/04/22 00:53:24;;;;;;;4.22;1.70;;;;;;;13.12;41.39;102315.13;5249331;27;20451;-64
2024/04/22 00:55:50;;;;;;;5.45;2.38;;;;;;;13.11;41.56;102315.25;5277435;27;20105;-65
2024/04/22 00:58:16;;;;;;;11.25;5.25;;;;;;;13.06;41.58;102320.06;5277643;27;20018;-64
2024/04/22 01:00:47;;;;;;;14.95;5.90;;;;;;;12.99;41.48;102308.84;5221661;27;20039;-64
2024/04/22 01:03:13;;;;;;;15.07;5.45;;;;;;;13.01;41.79;102322.22;5249576;27;20013;-65
2024/04/22 01:05:39;;;;;;;11.38;4.70;;;;;;;12.95;41.57;102312.75;5194399;27;20006;-64
2024/04/22 01:08:04;;;;;;;9.27;4.15;;;;;;;12.90;41.96;102309.50;5249621;27;20021;-64
2024/04/22 01:10:31;;;;;;;13.05;5.78;;;;;;;12.85;41.50;102307.16;5278922;27;20003;-64
2024/04/22 01:12:56;;;;;;;23.08;7.15;;;;;;;12.81;41.76;102310.16;5247824;27;20033;-64
2024/04/22 01:15:22;;;;;;;16.98;6.22;;;;;;;12.76;41.75;102309.59;5279214;27;20006;-64
2024/04/22 01:17:47;;;;;;;10.25;5.05;;;;;;;12.73;41.69;102307.16;5249118;27;20013;-64
2024/04/22 01:20:14;;;;;;;5.35;3.13;;;;;;;12.69;41.60;102319.09;5212161;27;19997;-64
2024/04/22 01:22:39;;;;;;;3.30;2.13;;;;;;;12.62;41.81;102309.69;5221873;27;20049;-64
2024/04/22 01:25:06;;;;;;;5.40;2.42;;;;;;;12.59;41.63;102323.38;5248757;27;20010;-64
2024/04/22 01:27:32;;;;;;;6.57;3.08;;;;;;;12.53;41.82;102311.22;5249089;27;20003;-64
2024/04/22 01:30:02;;;;;;;10.10;3.33;;;;;;;12.49;42.16;102300.78;5306244;27;20386;-64
2024/04/22 01:32:28;;;;;;;4.10;2.50;;;;;;;12.50;41.79;102307.88;5277356;27;20006;-64
2024/04/22 01:35:03;;;;;;;9.45;2.42;;;;;;;12.51;41.92;102306.88;5221922;27;20021;-64
2024/04/22 01:37:29;;;;;;;3.53;2.40;;;;;;;12.48;42.39;102296.38;5278381;27;20330;-64
2024/04/22 01:39:55;;;;;;;4.70;2.63;;;;;;;12.53;42.15;102299.59;5221669;27;19998;-63
2024/04/22 01:42:24;;;;;;;2.97;2.40;;;;;;;12.53;42.06;102302.28;5249639;27;20009;-64
2024/04/22 01:44:50;;;;;;;4.13;2.35;;;;;;;12.53;42.33;102296.91;5249520;27;20011;-64
2024/04/22 01:47:15;;;;;;;4.55;2.35;;;;;;;12.54;41.77;102295.94;5221230;27;20018;-64
2024/04/22 01:49:41;;;;;;;4.93;2.20;;;;;;;12.54;42.21;102301.31;5248815;27;20331;-64
2024/04/22 01:52:07;;;;;;;2.92;1.98;;;;;;;12.49;42.06;102292.72;5220750;27;19998;-64
2024/04/22 01:54:33;;;;;;;3.83;2.10;;;;;;;12.51;42.14;102290.75;5276277;27;20323;-64
2024/04/22 01:56:59;;;;;;;4.85;2.10;;;;;;;12.48;42.29;102294.53;5276687;27;20009;-64
2024/04/22 01:59:25;;;;;;;5.85;3.25;;;;;;;12.45;42.02;102291.22;5221046;27;20087;-64
2024/04/22 02:01:50;;;;;;;5.18;2.45;;;;;;;12.41;42.31;102290.56;5248700;27;20456;-64
2024/04/22 02:04:16;;;;;;;7.22;3.05;;;;;;;12.39;42.17;102297.00;5248303;27;20002;-65
2024/04/22 02:06:41;;;;;;;3.90;2.50;;;;;;;12.36;42.15;102298.06;5248633;27;20072;-64
2024/04/22 02:09:07;;;;;;;16.00;4.95;;;;;;;12.35;42.22;102290.09;5248798;27;20019;-64
2024/04/22 02:11:33;;;;;;;4.95;2.45;;;;;;;12.34;42.56;102296.47;5248756;27;20002;-64
2024/04/22 02:13:58;;;;;;;7.35;3.00;;;;;;;12.32;42.27;102290.31;5248714;27;20076;-64
2024/04/22 02:16:24;;;;;;;4.85;2.60;;;;;;;12.31;42.34;102291.28;5248654;27;20010;-65
2024/04/22 02:18:53;;;;;;;5.90;2.50;;;;;;;12.33;42.20;102297.41;5248697;27;20034;-64
2024/04/22 02:21:18;;;;;;;3.75;2.33;;;;;;;12.34;42.42;102289.22;5276570;27;20081;-64
2024/04/22 02:23:44;;;;;;;3.03;2.22;;;;;;;12.33;42.12;102287.53;5248328;27;20406;-64
2024/04/22 02:26:10;;;;;;;3.38;2.15;;;;;;;12.38;42.67;102288.06;5248604;27;20398;-64
2024/04/22 02:28:35;;;;;;;4.60;2.47;;;;;;;12.38;42.50;102284.53;5248193;27;20403;-64
2024/04/22 02:31:00;;;;;;;5.85;2.40;;;;;;;12.39;42.63;102287.13;5248253;27;20002;-64
2024/04/22 02:33:26;;;;;;;2.70;2.15;;;;;;;12.43;42.62;102290.44;5220588;27;20339;-65
2024/04/22 02:35:51;;;;;;;3.80;2.53;;;;;;;12.43;42.71;102282.38;5276314;27;20369;-63
2024/04/22 02:38:17;;;;;;;3.50;2.17;;;;;;;12.44;42.36;102287.66;5248055;27;20006;-64
2024/04/22 02:40:43;;;;;;;4.55;3.10;;;;;;;12.47;42.43;102282.06;5220102;27;20014;-63
2024/04/22 02:43:08;;;;;;;4.97;2.53;;;;;;;12.48;42.54;102285.63;5276171;27;20025;-63
2024/04/22 02:45:34;;;;;;;3.50;2.35;;;;;;;12.48;42.53;102289.16;5277705;27;20010;-64
2024/04/22 02:47:59;;;;;;;3.97;2.20;;;;;;;12.45;42.56;102280.47;5247910;27;20414;-64
2024/04/22 02:50:25;;;;;;;3.30;2.25;;;;;;;12.46;42.65;102282.16;5247835;27;20012;-64
2024/04/22 02:52:50;;;;;;;5.43;2.75;;;;;;;12.45;42.56;102280.47;5247875;27;20525;-64
2024/04/22 02:55:16;;;;;;;4.28;2.47;;;;;;;12.46;42.63;102282.16;5247790;27;20013;-64
2024/04/22 02:57:41;;;;;;;7.55;2.60;;;;;;;12.42;42.39;102283.38;5275858;27;20003;-63
2024/04/22 03:00:07;;;;;;;3.53;2.13;;;;;;;12.45;42.76;102291.22;5277172;27;20013;-64
2024/04/22 03:02:32;;;;;;;3.95;2.38;;;;;;;12.42;42.45;102288.72;5277170;27;20036;-64
2024/04/22 03:04:58;;;;;;;3.70;2.03;;;;;;;12.39;42.92;102292.50;5248230;27;20069;-64
2024/04/22 03:07:24;;;;;;;5.50;2.70;;;;;;;12.41;42.46;102295.06;5219814;27;20010;-64
2024/04/22 03:09:50;;;;;;;6.43;2.92;;;;;;;12.40;42.79;102282.56;5247399;27;20021;-64
2024/04/22 03:12:15;;;;;;;7.80;2.58;;;;;;;12.39;42.70;102286.25;5275528;27;20003;-63
2024/04/22 03:14:41;;;;;;;4.47;2.90;;;;;;;12.38;42.93;102284.53;5247387;27;20006;-64
2024/04/22 03:17:06;;;;;;;5.38;2.92;;;;;;;12.36;43.05;102275.72;5219632;27;19998;-64
2024/04/22 03:19:32;;;;;;;5.53;2.60;;;;;;;12.34;42.64;102281.19;5219376;27;19998;-64
2024/04/22 03:21:57;;;;;;;5.72;2.63;;;;;;;12.39;43.00;102272.81;5247333;27;19998;-64
2024/04/22 03:24:23;;;;;;;4.47;2.08;;;;;;;12.39;42.98;102275.50;5247213;27;20002;-64
2024/04/22 03:26:49;;;;;;;7.32;2.72;;;;;;;12.40;42.91;102271.84;5247310;27;20006;-64
2024/04/22 03:29:16;;;;;;;5.78;3.25;;;;;;;12.40;42.87;102271.84;5247230;27;20081;-64
2024/04/22 03:31:41;;;;;;;4.28;2.58;;;;;;;12.38;42.93;102269.25;5247059;27;20002;-64
2024/04/22 03:34:08;;;;;;;4.35;2.67;;;;;;;12.36;43.08;102267.66;5276493;27;20030;-64
2024/04/22 03:36:33;;;;;;;3.92;2.78;;;;;;;12.35;42.83;102268.59;5250376;27;20450;-64
2024/04/22 03:38:59;;;;;;;6.72;2.80;;;;;;;12.32;42.86;102267.00;5250524;27;20012;-64
2024/04/22 03:41:27;;;;;;;3.78;1.73;;;;;;;12.26;43.09;102265.59;5278731;27;20455;-64
2024/04/22 03:43:53;;;;;;;3.00;1.95;;;;;;;12.23;43.07;102271.16;5223286;27;19998;-65
2024/04/22 03:51:46;;;;;;;3.83;2.47;;;;;;;12.08;43.18;102266.84;5254906;27;20002;-64
2024/04/22 03:54:12;;;;;;;2.33;1.75;;;;;;;12.04;42.85;102267.16;5278480;27;20350;-64
2024/04/22 03:56:38;;;;;;;5.47;1.60;;;;;;;12.00;42.66;102269.19;5250652;27;20402;-64
2024/04/22 03:59:04;;;;;;;3.90;2.28;;;;;;;11.99;42.86;102272.84;5280281;27;20006;-64
2024/04/22 04:01:29;;;;;;;16.40;5.97;;;;;;;11.97;42.91;102266.72;5250813;27;20002;-65
2024/04/22 04:03:56;;;;;;;98.07;25.05;;;;;;;12.00;43.01;102266.50;5252110;27;20017;-64
2024/04/22 04:06:22;;;;;;;98.15;25.02;;;;;;;11.97;43.21;102264.03;5224808;27;20018;-64
2024/04/22 04:08:48;;;;;;;54.40;17.42;;;;;;;12.00;42.85;102269.19;5282969;27;20003;-64
2024/04/22 04:11:15;;;;;;;67.95;19.27;;;;;;;11.97;42.90;102269.41;5225626;27;20017;-65
2024/04/22 04:13:43;;;;;;;67.63;20.85;;;;;;;11.97;43.29;102258.66;5251173;27;20002;-65
2024/04/22 04:16:09;;;;;;;52.78;15.85;;;;;;;12.00;43.63;102271.88;5250962;27;20009;-64
2024/04/22 04:18:37;;;;;;;24.27;9.57;;;;;;;12.00;43.26;102266.50;5250364;27;20002;-64
2024/04/22 04:21:02;;;;;;;21.88;8.85;;;;;;;11.98;43.15;102262.19;5279687;27;20447;-64
2024/04/22 04:23:28;;;;;;;19.75;6.32;;;;;;;12.00;43.19;102263.81;5279952;27;20002;-65
2024/04/22 04:25:53;;;;;;;16.48;4.85;;;;;;;12.04;43.25;102261.78;5280000;27;20328;-64
2024/04/22 04:28:19;;;;;;;12.95;4.10;;;;;;;12.03;43.29;102260.91;5223180;27;20006;-65
2024/04/22 04:30:53;;;;;;;13.40;3.08;;;;;;;12.05;43.26;102267.06;5222717;27;20338;-65
2024/04/22 04:33:19;;;;;;;4.97;2.47;;;;;;;12.04;43.26;102265.31;5281515;27;20459;-66
2024/04/22 04:35:44;;;;;;;6.15;2.40;;;;;;;12.09;43.11;102265.88;5224246;27;20006;-65
2024/04/22 04:38:10;;;;;;;8.68;3.03;;;;;;;12.10;43.32;102264.06;5279639;27;20033;-64
2024/04/22 04:40:35;;;;;;;7.03;2.35;;;;;;;12.10;43.30;102264.91;5222105;27;19999;-65
2024/04/22 04:43:01;;;;;;;3.85;1.90;;;;;;;12.13;43.40;102263.84;5249414;27;20038;-65
2024/04/22 04:45:26;;;;;;;3.70;2.47;;;;;;;12.15;43.57;102262.78;5221827;27;20462;-65
2024/04/22 04:47:53;;;;;;;3.03;1.63;;;;;;;12.16;43.33;102264.50;5221844;27;20013;-64
2024/04/22 04:50:18;;;;;;;2.60;1.90;;;;;;;12.18;43.24;102270.63;5277257;27;20014;-64
2024/04/22 04:52:44;;;;;;;2.15;1.08;;;;;;;12.20;43.65;102257.94;5249761;27;20026;-64
2024/04/22 04:55:10;;;;;;;2.53;1.58;;;;;;;12.21;43.09;102267.72;5221963;27;20455;-65
2024/04/22 04:57:35;;;;;;;7.53;1.45;;;;;;;12.21;43.55;102261.50;5221509;27;20331;-65
2024/04/22 05:00:01;;;;;;;2.70;1.38;;;;;;;12.19;43.55;102253.56;5221883;27;20076;-64
2024/04/22 05:02:26;;;;;;;1.35;1.10;;;;;;;12.23;43.11;102263.09;5250145;27;20013;-64
2024/04/22 05:04:51;;;;;;;4.93;1.65;;;;;;;12.25;43.38;102260.34;5221869;27;19999;-64
2024/04/22 05:07:17;;;;;;;2.97;1.55;;;;;;;12.25;43.55;102260.34;5279306;27;20002;-64
2024/04/22 05:09:42;;;;;;;3.00;1.38;;;;;;;12.27;43.62;102259.25;5249642;27;20002;-65
2024/04/22 05:12:08;;;;;;;1.58;1.42;;;;;;;12.31;43.55;102256.38;5279340;27;20140;-65
2024/04/22 05:14:33;;;;;;;2.58;1.08;;;;;;;12.33;43.41;102254.44;5249876;27;20002;-65
2024/04/22 05:16:59;;;;;;;1.85;1.70;;;;;;;12.35;43.56;102255.16;5249676;27;20338;-64
2024/04/22 05:19:24;;;;;;;2.63;1.20;;;;;;;12.38;43.38;102265.72;5249541;27;20076;-65
2024/04/22 05:21:49;;;;;;;3.28;2.20;;;;;;;12.40;43.88;102266.47;5249801;27;20014;-65
2024/04/22 05:24:18;;;;;;;7.85;2.17;;;;;;;12.46;43.34;102260.66;5222498;27;20016;-65
2024/04/22 05:26:44;;;;;;;5.93;2.88;;;;;;;12.51;43.61;102263.88;5249163;27;20370;-64
2024/04/22 05:29:09;;;;;;;12.32;5.25;;;;;;;12.57;43.45;102264.34;5249954;27;20017;-63
2024/04/22 05:31:35;;;;;;;9.90;4.90;;;;;;;12.63;43.56;102263.03;5221421;27;20013;-64
2024/04/22 05:36:44;;;;;;;16.92;5.20;;;;;;;12.71;43.59;102250.78;5276947;27;19998;-63
2024/04/22 05:39:10;;;;;;;14.27;3.58;;;;;;;12.76;43.80;102256.69;5221475;27;20014;-64
2024/04/22 05:41:36;;;;;;;17.35;6.80;;;;;;;12.81;43.46;102261.78;5221476;27;20390;-63
2024/04/22 05:44:01;;;;;;;23.70;6.88;;;;;;;12.87;43.57;102266.69;5221193;27;20072;-63
2024/04/22 05:46:27;;;;;;;15.70;5.55;;;;;;;12.91;43.74;102261.97;5248864;27;20076;-63
2024/04/22 05:48:52;;;;;;;11.07;4.68;;;;;;;12.97;43.18;102262.41;5221394;27;20072;-64
2024/04/22 05:51:17;;;;;;;9.07;3.47;;;;;;;13.02;43.32;102264.75;5249003;27;19998;-64
2024/04/22 05:53:43;;;;;;;7.07;2.55;;;;;;;13.13;43.45;102262.19;5248810;27;20065;-63
2024/04/22 05:56:08;;;;;;;5.03;2.85;;;;;;;13.16;43.49;102261.97;5220900;27;20345;-63
2024/04/22 05:58:34;;;;;;;3.72;2.38;;;;;;;13.18;43.26;102266.25;5277598;27;19998;-63
2024/04/22 06:01:00;;;;;;;3.55;2.45;;;;;;;13.21;43.35;102259.78;5248802;27;19994;-63
2024/04/22 06:03:25;;;;;;;4.13;2.72;;;;;;;13.24;43.55;102260.44;5248204;27;20459;-63
2024/04/22 06:05:50;;;;;;;4.30;2.67;;;;;;;13.35;43.55;102255.13;5221179;27;20005;-63
2024/04/22 06:08:17;;;;;;;4.60;2.05;;;;;;;13.40;43.35;102254.78;5248024;27;20003;-63
2024/04/22 06:10:43;;;;;;;4.78;2.30;;;;;;;13.54;43.37;102264.56;5248751;27;20026;-63
2024/04/22 06:13:08;;;;;;;8.15;3.70;;;;;;;13.62;43.20;102260.34;5248498;27;20002;-62
2024/04/22 06:15:34;;;;;;;3.15;2.25;;;;;;;13.94;42.90;102274.06;5278125;27;20022;-63
2024/04/22 06:17:59;;;;;;;4.50;2.75;;;;;;;14.16;42.92;102274.16;5220487;27;20018;-64
2024/04/22 06:20:24;;;;;;;4.57;2.72;;;;;;;14.43;42.96;102269.38;5261698;26;20404;-64
2024/04/22 06:22:50;;;;;;;2.88;2.33;;;;;;;14.70;42.60;102271.78;5281476;27;20006;-63
2024/04/22 06:25:15;;;;;;;1.63;1.52;;;;;;;14.95;42.44;102262.59;5277945;27;20017;-64
2024/04/22 06:27:41;;;;;;;3.15;1.90;;;;;;;15.09;42.52;102265.06;5247820;27;20525;-64
2024/04/22 06:30:07;;;;;;;4.18;2.67;;;;;;;15.22;42.42;102265.78;5247963;27;19998;-64
2024/04/22 06:32:34;;;;;;;4.22;2.53;;;;;;;15.36;42.92;102252.00;5246625;27;20466;-64
2024/04/22 06:35:03;;;;;;;4.35;2.80;;;;;;;15.56;42.62;102262.06;5219812;27;20018;-65
2024/04/22 06:37:29;;;;;;;5.38;2.72;;;;;;;15.76;42.47;102252.31;5220232;27;20021;-64
2024/04/22 06:39:55;;;;;;;3.38;2.25;;;;;;;15.92;42.10;102249.19;5276000;27;19998;-64
2024/04/22 06:42:21;;;;;;;4.75;2.80;;;;;;;16.08;41.94;102241.53;5247777;27;20003;-65
2024/04/22 06:44:47;;;;;;;5.45;2.58;;;;;;;16.39;41.47;102246.00;5220462;27;20089;-64
2024/04/22 06:47:13;;;;;;;4.38;2.60;;;;;;;16.68;41.77;102241.66;5220077;27;20010;-65
2024/04/22 06:49:39;;;;;;;4.75;3.25;;;;;;;16.92;41.66;102244.06;5247822;27;20014;-64
2024/04/22 06:52:06;;;;;;;5.38;2.85;;;;;;;17.08;41.38;102235.44;5247697;27;20002;-64
2024/04/22 06:54:31;;;;;;;4.40;2.63;;;;;;;17.33;40.99;102243.94;5247670;27;20335;-64
2024/04/22 06:56:56;;;;;;;2.80;1.95;;;;;;;17.50;40.98;102233.44;5247772;27;20018;-64
2024/04/22 06:59:22;;;;;;;3.85;2.28;;;;;;;17.48;41.87;102233.56;5277600;27;20069;-64
2024/04/22 07:01:47;;;;;;;4.38;2.90;;;;;;;17.39;41.44;102234.41;5219888;27;20076;-64
2024/04/22 07:04:13;;;;;;;4.70;2.47;;;;;;;17.42;41.32;102232.25;5247851;27;20007;-64
2024/04/22 07:06:38;;;;;;;3.20;2.10;;;;;;;17.58;41.41;102230.91;5247881;27;20350;-64
2024/04/22 07:09:09;;;;;;;4.90;2.72;;;;;;;17.70;41.26;102230.63;5220035;27;20006;-64
2024/04/22 07:11:38;;;;;;;7.97;2.72;;;;;;;17.66;41.00;102245.47;5280515;27;20018;-64
2024/04/22 07:14:04;;;;;;;3.95;2.67;;;;;;;17.55;41.21;102248.31;5279470;27;20017;-64
2024/04/22 07:16:31;;;;;;;4.07;2.03;;;;;;;17.54;41.05;102245.72;5223515;27;20002;-64
2024/04/22 07:18:56;;;;;;;4.95;2.75;;;;;;;17.47;41.57;102242.69;5251247;27;19999;-64
2024/04/22 07:21:22;;;;;;;3.13;2.72;;;;;;;17.38;41.26;102233.56;5223735;27;20080;-64
2024/04/22 07:23:48;;;;;;;2.67;2.30;;;;;;;17.67;40.72;102247.16;5280460;27;20458;-64
2024/04/22 07:26:13;;;;;;;5.22;2.67;;;;;;;17.90;40.40;102248.63;5225316;27;20033;-64
2024/04/22 07:28:39;;;;;;;5.28;2.60;;;;;;;18.25;40.48;102245.34;5252877;27;20056;-64
2024/04/22 07:31:04;;;;;;;4.63;2.70;;;;;;;18.51;40.37;102240.19;5253843;27;20006;-64
2024/04/22 07:33:30;;;;;;;3.35;2.15;;;;;;;18.94;39.85;102235.06;5253911;27;19999;-65
2024/04/22 07:36:04;;;;;;;5.07;2.92;;;;;;;19.37;39.78;102229.00;5251762;27;20002;-65
2024/04/22 07:38:31;;;;;;;4.40;2.70;;;;;;;19.69;39.26;102221.22;5223246;27;20458;-65
2024/04/22 07:40:57;;;;;;;4.75;2.53;;;;;;;19.66;39.99;102228.81;5280571;27;20006;-65
2024/04/22 07:43:22;;;;;;;4.20;2.17;;;;;;;19.63;39.36;102227.28;5278789;27;20038;-64
2024/04/22 07:45:48;;;;;;;2.75;2.08;;;;;;;19.63;39.46;102230.00;5222893;27;20447;-65
2024/04/22 07:48:14;;;;;;;4.57;1.95;;;;;;;19.86;39.44;102215.94;5250637;27;20017;-64
2024/04/22 07:50:39;;;;;;;3.78;2.05;;;;;;;20.03;39.45;102225.97;5250659;27;20046;-64
2024/04/22 07:53:05;;;;;;;5.57;2.33;;;;;;;20.40;38.55;102220.34;5250518;27;20080;-64
2024/04/22 07:55:34;;;;;;;5.25;2.78;;;;;;;20.58;38.96;102215.69;5278868;27;20044;-65
2024/04/22 07:58:00;;;;;;;4.80;2.60;;;;;;;20.86;38.38;102217.22;5250424;27;20459;-65
2024/04/22 08:00:25;;;;;;;4.10;2.63;;;;;;;21.15;38.35;102214.16;5250743;27;20002;-66
2024/04/22 08:02:51;;;;;;;2.20;1.85;;;;;;;21.13;38.42;102214.34;5250082;27;20002;-65
2024/04/22 08:05:17;;;;;;;3.42;1.80;;;;;;;21.39;38.46;102214.25;5250057;27;20080;-64
2024/04/22 08:07:46;;;;;;;4.30;2.22;;;;;;;21.52;37.94;102211.06;5195060;27;19999;-65
2024/04/22 08:10:12;;;;;;;4.30;2.17;;;;;;;21.57;37.96;102216.88;5250232;27;20017;-65
2024/04/22 08:12:38;;;;;;;3.75;2.45;;;;;;;21.67;37.85;102212.09;5222174;27;20014;-65
2024/04/22 08:15:03;;;;;;;4.88;2.28;;;;;;;21.47;37.98;102223.31;5249864;27;20021;-65
2024/04/22 08:17:29;;;;;;;3.28;1.90;;;;;;;21.71;37.67;102216.22;5250446;27;20017;-65
2024/04/22 08:19:54;;;;;;;3.75;2.05;;;;;;;21.64;37.94;102216.03;5250062;27;20447;-64
2024/04/22 08:22:19;;;;;;;3.35;2.08;;;;;;;21.93;37.17;102223.78;5221845;27;20470;-64
2024/04/22 08:24:45;;;;;;;2.53;2.00;;;;;;;21.83;37.45;102225.78;5222176;27;20497;-64
2024/04/22 08:27:13;;;;;;;2.58;1.90;;;;;;;21.75;37.54;102215.69;5250270;27;20010;-65
2024/04/22 08:29:39;;;;;;;4.22;2.33;;;;;;;21.69;37.59;102221.81;5217441;27;20035;-65
2024/04/22 08:32:05;;;;;;;3.58;1.75;;;;;;;21.72;37.57;102221.50;5272233;27;20459;-64
2024/04/22 08:34:30;;;;;;;3.35;1.70;;;;;;;21.84;37.23;102220.16;5249246;27;20076;-65
2024/04/22 08:36:56;;;;;;;5.10;2.05;;;;;;;22.00;36.87;102219.34;5249753;27;20463;-64
2024/04/22 08:39:21;;;;;;;3.45;1.90;;;;;;;21.91;36.80;102223.09;5249715;27;20006;-64
2024/04/22 08:41:47;;;;;;;4.20;1.90;;;;;;;21.82;37.06;102222.22;5249620;27;20472;-63
2024/04/22 08:44:14;;;;;;;2.00;1.58;;;;;;;22.02;36.68;102220.03;5277737;27;20422;-63
2024/04/22 08:46:39;;;;;;;1.50;1.30;;;;;;;22.04;36.85;102227.03;5279395;27;20003;-66
2024/04/22 08:49:05;;;;;;;2.28;1.50;;;;;;;22.09;36.24;102215.59;5249436;27;20073;-63
2024/04/22 08:51:31;;;;;;;3.03;1.63;;;;;;;22.56;36.08;102216.59;5221916;27;20006;-63
2024/04/22 08:53:57;;;;;;;2.88;2.08;;;;;;;22.73;35.64;102216.56;5249787;27;20450;-63
2024/04/22 08:56:24;;;;;;;2.72;1.63;;;;;;;22.94;35.60;102203.22;5250337;27;20492;-63
2024/04/22 08:58:53;;;;;;;6.18;1.85;;;;;;;23.31;34.94;102203.38;5194905;27;20010;-63
2024/04/22 09:01:18;;;;;;;2.15;1.60;;;;;;;23.62;35.18;102193.31;5277925;27;20030;-63
2024/04/22 09:03:44;;;;;;;1.92;1.42;;;;;;;23.80;34.99;102195.75;5249096;27;20446;-63
2024/04/22 09:06:10;;;;;;;4.38;1.75;;;;;;;24.12;34.98;102202.91;5249392;27;20011;-63
2024/04/22 09:08:42;;;;;;;1.50;1.00;;;;;;;24.36;34.05;102194.47;5221421;27;20346;-65
2024/04/22 09:11:14;;;;;;;1.67;1.20;;;;;;;24.41;34.35;102182.94;5249241;27;20010;-64
2024/04/22 09:13:39;;;;;;;2.80;1.73;;;;;;;24.18;34.70;102182.97;5249214;27;20443;-64
2024/04/22 09:16:05;;;;;;;3.15;1.85;;;;;;;24.19;34.59;102190.16;5249158;27;20006;-63
2024/04/22 09:18:30;;;;;;;2.35;1.77;;;;;;;24.05;34.47;102182.72;5249097;27;20017;-64
2024/04/22 09:21:06;;;;;;;3.92;1.75;;;;;;;23.59;34.66;102190.09;5248938;27;19999;-64
2024/04/22 09:23:31;;;;;;;2.55;1.60;;;;;;;23.24;34.80;102185.97;5249085;27;20008;-63
2024/04/22 09:25:57;;;;;;;2.30;1.45;;;;;;;23.38;34.63;102193.47;5278423;27;20018;-64
2024/04/22 09:28:27;;;;;;;2.63;1.50;;;;;;;23.05;34.41;102195.47;5221376;27;20014;-64
2024/04/22 09:30:53;;;;;;;1.73;1.23;;;;;;;22.86;34.81;102197.78;5278741;27;20003;-63
2024/04/22 09:33:21;;;;;;;3.17;1.48;;;;;;;22.87;34.30;102189.38;5219997;27;20013;-63
2024/04/22 09:35:50;;;;;;;2.33;1.30;;;;;;;22.50;34.55;102189.13;5215453;27;20018;-63
2024/04/22 09:38:16;;;;;;;1.70;1.08;;;;;;;22.16;34.60;102186.59;5243401;27;20010;-65
2024/04/22 09:40:42;;;;;;;2.30;1.70;;;;;;;21.86;34.77;102190.00;5215201;27;20010;-64
2024/04/22 09:43:08;;;;;;;1.88;1.40;;;;;;;21.56;34.78;102185.16;5220984;27;20053;-65
2024/04/22 09:45:33;;;;;;;3.22;1.30;;;;;;;21.27;34.87;102183.72;5193936;27;20014;-65
2024/04/22 09:47:58;;;;;;;2.53;1.20;;;;;;;21.03;34.94;102178.16;5193692;27;20010;-65
2024/04/22 09:50:25;;;;;;;1.77;1.20;;;;;;;20.84;34.84;102181.13;5220889;27;20084;-64
2024/04/22 09:52:51;;;;;;;1.45;1.30;;;;;;;20.69;34.84;102182.75;5278363;27;20002;-65
2024/04/22 09:55:17;;;;;;;4.18;1.38;;;;;;;20.59;34.57;102177.44;5220958;27;20454;-65
2024/04/22 09:57:43;;;;;;;1.65;1.10;;;;;;;20.52;34.90;102179.06;5221248;27;20577;-66
2024/04/22 10:00:10;;;;;;;3.53;1.52;;;;;;;20.50;34.97;102177.53;5248738;27;20009;-65
2024/04/22 10:02:37;;;;;;;1.25;0.88;;;;;;;20.58;34.47;102177.56;5193802;27;20002;-64
2024/04/22 10:05:09;;;;;;;2.60;1.45;;;;;;;21.54;33.27;102176.28;5221435;27;19998;-64
2024/04/22 10:07:36;;;;;;;;;;;;;;;22.18;33.12;102173.63;5249053;27;20014;-64
2024/04/22 10:10:01;;;;;;;1.20;1.10;;;;;;;22.53;33.13;102165.03;5248558;27;19967;-66
2024/04/22 10:12:29;;;;;;;1.33;0.90;;;;;;;22.73;32.85;102170.13;5278067;27;20339;-65
2024/04/22 10:15:14;;;;;;;2.55;1.10;;;;;;;22.47;32.87;102165.72;5248662;27;20455;-66
2024/04/22 10:17:42;;;;;;;1.52;1.15;;;;;;;22.26;33.16;102170.03;5220500;27;20006;-65
2024/04/22 10:20:10;;;;;;;0.68;0.60;;;;;;;22.14;33.45;102165.97;5248536;27;20021;-67
2024/04/22 10:22:38;;;;;;;4.43;1.17;;;;;;;22.30;32.81;102166.81;5220980;27;20439;-66
2024/04/22 10:25:08;;;;;;;2.08;1.05;;;;;;;22.20;32.90;102163.38;5248416;27;20006;-65
2024/04/22 10:27:35;;;;;;;1.70;1.10;;;;;;;22.13;32.88;102165.13;5240387;27;20041;-66
2024/04/22 10:30:05;;;;;;;1.85;0.90;;;;;;;21.95;32.93;102150.78;5304844;27;20016;-66
2024/04/22 10:32:30;;;;;;;2.00;1.00;;;;;;;21.68;33.14;102154.66;5247958;27;20079;-65
2024/04/22 10:34:55;;;;;;;1.77;1.05;;;;;;;21.44;33.65;102158.19;5220190;27;20014;-65
2024/04/22 10:37:21;;;;;;;0.50;0.45;;;;;;;21.25;33.53;102152.19;5220039;27;20350;-65
2024/04/22 10:39:48;;;;;;;1.77;1.30;;;;;;;21.17;33.21;102146.72;5219662;27;20483;-65
2024/04/22 10:42:17;;;;;;;3.42;1.20;;;;;;;21.68;32.83;102148.34;5247495;27;20029;-65
2024/04/22 10:44:44;;;;;;;1.83;1.30;;;;;;;22.46;31.93;102138.59;5222145;27;20175;-66
2024/04/22 10:47:09;;;;;;;1.52;1.42;;;;;;;22.92;31.78;102126.84;5250863;27;20458;-65
2024/04/22 10:49:35;;;;;;;1.15;1.00;;;;;;;22.70;32.35;102130.34;5251902;27;20017;-66
2024/04/22 10:52:01;;;;;;;1.33;0.90;;;;;;;22.48;32.63;102126.47;5224139;27;20002;-67
2024/04/22 10:54:27;;;;;;;1.48;1.00;;;;;;;22.66;31.93;102129.00;5251876;27;20006;-66
2024/04/22 10:56:53;;;;;;;1.65;1.10;;;;;;;22.91;32.26;102116.09;5252038;27;20025;-67
2024/04/22 10:59:19;;;;;;;4.63;1.50;;;;;;;23.24;31.68;102117.63;5252433;27;20025;-67
2024/04/22 11:01:45;;;;;;;1.85;1.27;;;;;;;24.00;30.86;102113.97;5251065;27;20006;-67
2024/04/22 11:04:11;;;;;;;2.72;1.17;;;;;;;24.86;30.58;102109.63;5222426;27;20002;-66
2024/04/22 11:06:37;;;;;;;1.50;1.17;;;;;;;25.40;30.53;102103.72;5250246;27;20454;-67
2024/04/22 11:09:04;;;;;;;1.88;1.27;;;;;;;25.80;29.64;102100.34;5222346;27;20018;-66
2024/04/22 11:11:30;;;;;;;1.90;1.10;;;;;;;26.13;29.68;102099.78;5278078;27;20300;-66
2024/04/22 11:13:56;;;;;;;1.77;0.98;;;;;;;26.46;29.62;102089.88;5237769;27;20054;-66
2024/04/22 11:16:21;;;;;;;3.22;1.02;;;;;;;26.68;29.58;102096.97;5249619;27;20069;-66
2024/04/22 11:18:47;;;;;;;1.23;0.60;;;;;;;26.84;29.54;102085.66;5194524;27;20026;-66
2024/04/22 11:21:13;;;;;;;1.42;0.90;;;;;;;26.86;29.21;102083.53;5278344;27;20352;-66
2024/04/22 11:23:38;;;;;;;3.00;1.00;;;;;;;26.62;29.24;102081.28;5221723;27;20007;-66
2024/04/22 11:26:05;;;;;;;2.22;0.77;;;;;;;26.30;29.72;102082.78;5249621;27;20002;-67
2024/04/22 11:28:31;;;;;;;1.10;0.85;;;;;;;25.97;29.29;102085.28;5249233;27;20021;-66